sensor_id;sensor_type;location;lat;lon;timestamp;P1;durP1;ratioP1;P2;durP2;ratioP2
19374;SDS011;9823;50.936;4.046;2022-08-14T00:01:46;9.13;;;4.30;;
19374;SDS011;9823;50.936;4.046;2022-08-14T00:04:14;11.37;;;3.90;;
19374;SDS011;9823;50.936;4.046;2022-08-14T00:06:43;10.87;;;3.83;;
19374;SDS011;9823;50.936;4.046;2022-08-14T00:09:11;7.40;;;3.63;;
19374;SDS011;9823;50.936;4.046;2022-08-14T00:11:37;6.13;;;4.07;;
19374;SDS011;9823;50.936;4.046;2022-08-14T00:14:03;7.30;;;4.43;;
19374;SDS011;9823;50.936;4.046;2022-08-14T00:16:32;6.27;;;3.93;;
19374;SDS011;9823;50.936;4.046;2022-08-14T00:19:01;8.30;;;4.33;;
19374;SDS011;9823;50.936;4.046;2022-08-14T00:21:29;8.53;;;4.77;;
19374;SDS011;9823;50.936;4.046;2022-08-14T00:23:56;6.27;;;4.50;;
19374;SDS011;9823;50.936;4.046;2022-08-14T00:26:22;12.03;;;4.27;;
19374;SDS011;9823;50.936;4.046;2022-08-14T00:28:51;10.13;;;4.23;;
19374;SDS011;9823;50.936;4.046;2022-08-14T00:31:18;8.37;;;4.30;;
19374;SDS011;9823;50.936;4.046;2022-08-14T00:33:46;11.27;;;5.00;;
19374;SDS011;9823;50.936;4.046;2022-08-14T00:36:14;7.20;;;4.37;;
19374;SDS011;9823;50.936;4.046;2022-08-14T00:38:40;8.33;;;4.40;;
19374;SDS011;9823;50.936;4.046;2022-08-14T00:41:07;11.07;;;4.43;;
19374;SDS011;9823;50.936;4.046;2022-08-14T00:43:35;9.90;;;4.53;;
19374;SDS011;9823;50.936;4.046;2022-08-14T00:46:03;7.30;;;3.80;;
19374;SDS011;9823;50.936;4.046;2022-08-14T00:48:29;5.77;;;4.10;;
19374;SDS011;9823;50.936;4.046;2022-08-14T00:50:55;11.40;;;4.10;;
19374;SDS011;9823;50.936;4.046;2022-08-14T00:53:21;13.00;;;4.13;;
19374;SDS011;9823;50.936;4.046;2022-08-14T00:55:51;11.43;;;4.30;;
19374;SDS011;9823;50.936;4.046;2022-08-14T00:58:20;8.73;;;5.00;;
19374;SDS011;9823;50.936;4.046;2022-08-14T01:00:56;9.40;;;4.33;;
19374;SDS011;9823;50.936;4.046;2022-08-14T01:03:22;6.07;;;4.43;;
19374;SDS011;9823;50.936;4.046;2022-08-14T01:05:53;11.23;;;3.93;;
19374;SDS011;9823;50.936;4.046;2022-08-14T01:08:23;14.27;;;4.23;;
19374;SDS011;9823;50.936;4.046;2022-08-14T01:10:50;8.60;;;4.80;;
19374;SDS011;9823;50.936;4.046;2022-08-14T01:13:25;9.63;;;4.23;;
19374;SDS011;9823;50.936;4.046;2022-08-14T01:16:00;5.17;;;3.80;;
19374;SDS011;9823;50.936;4.046;2022-08-14T01:18:27;8.47;;;4.43;;
19374;SDS011;9823;50.936;4.046;2022-08-14T01:21:12;5.50;;;4.10;;
19374;SDS011;9823;50.936;4.046;2022-08-14T01:23:48;7.20;;;4.23;;
19374;SDS011;9823;50.936;4.046;2022-08-14T01:26:15;7.90;;;4.20;;
19374;SDS011;9823;50.936;4.046;2022-08-14T01:28:47;12.63;;;4.80;;
19374;SDS011;9823;50.936;4.046;2022-08-14T01:31:19;6.70;;;4.50;;
19374;SDS011;9823;50.936;4.046;2022-08-14T01:33:46;9.47;;;4.00;;
19374;SDS011;9823;50.936;4.046;2022-08-14T01:36:17;7.70;;;4.33;;
19374;SDS011;9823;50.936;4.046;2022-08-14T01:38:49;8.23;;;3.80;;
19374;SDS011;9823;50.936;4.046;2022-08-14T01:41:21;5.23;;;3.97;;
19374;SDS011;9823;50.936;4.046;2022-08-14T01:46:23;6.90;;;4.33;;
19374;SDS011;9823;50.936;4.046;2022-08-14T01:48:49;6.40;;;4.27;;
19374;SDS011;9823;50.936;4.046;2022-08-14T01:51:19;6.33;;;3.93;;
19374;SDS011;9823;50.936;4.046;2022-08-14T01:53:53;8.40;;;4.17;;
19374;SDS011;9823;50.936;4.046;2022-08-14T01:56:20;5.73;;;4.37;;
19374;SDS011;9823;50.936;4.046;2022-08-14T01:58:57;9.90;;;4.83;;
19374;SDS011;9823;50.936;4.046;2022-08-14T02:01:24;6.73;;;4.00;;
19374;SDS011;9823;50.936;4.046;2022-08-14T02:03:55;6.80;;;4.10;;
19374;SDS011;9823;50.936;4.046;2022-08-14T02:06:29;8.27;;;3.97;;
19374;SDS011;9823;50.936;4.046;2022-08-14T02:08:55;6.77;;;4.10;;
19374;SDS011;9823;50.936;4.046;2022-08-14T02:11:22;8.53;;;4.50;;
19374;SDS011;9823;50.936;4.046;2022-08-14T02:14:01;6.33;;;4.00;;
19374;SDS011;9823;50.936;4.046;2022-08-14T02:16:31;5.93;;;4.20;;
19374;SDS011;9823;50.936;4.046;2022-08-14T02:19:03;7.97;;;4.30;;
19374;SDS011;9823;50.936;4.046;2022-08-14T02:21:32;4.37;;;3.90;;
19374;SDS011;9823;50.936;4.046;2022-08-14T02:24:03;6.23;;;4.13;;
19374;SDS011;9823;50.936;4.046;2022-08-14T02:26:30;4.97;;;4.43;;
19374;SDS011;9823;50.936;4.046;2022-08-14T02:29:02;7.07;;;4.23;;
19374;SDS011;9823;50.936;4.046;2022-08-14T02:31:29;5.63;;;4.53;;
19374;SDS011;9823;50.936;4.046;2022-08-14T02:33:59;6.27;;;4.60;;
19374;SDS011;9823;50.936;4.046;2022-08-14T02:36:25;9.90;;;4.60;;
19374;SDS011;9823;50.936;4.046;2022-08-14T02:38:53;8.40;;;4.90;;
19374;SDS011;9823;50.936;4.046;2022-08-14T02:41:19;9.33;;;5.23;;
19374;SDS011;9823;50.936;4.046;2022-08-14T02:43:45;6.70;;;4.37;;
19374;SDS011;9823;50.936;4.046;2022-08-14T02:46:11;5.67;;;4.53;;
19374;SDS011;9823;50.936;4.046;2022-08-14T02:48:40;6.47;;;4.50;;
19374;SDS011;9823;50.936;4.046;2022-08-14T02:51:09;6.00;;;4.53;;
19374;SDS011;9823;50.936;4.046;2022-08-14T02:53:38;8.27;;;4.93;;
19374;SDS011;9823;50.936;4.046;2022-08-14T02:56:08;6.50;;;5.03;;
19374;SDS011;9823;50.936;4.046;2022-08-14T02:58:40;8.27;;;4.83;;
19374;SDS011;9823;50.936;4.046;2022-08-14T03:01:08;6.00;;;4.77;;
19374;SDS011;9823;50.936;4.046;2022-08-14T03:03:37;9.83;;;4.90;;
19374;SDS011;9823;50.936;4.046;2022-08-14T03:06:03;7.77;;;4.40;;
19374;SDS011;9823;50.936;4.046;2022-08-14T03:08:29;9.23;;;4.30;;
19374;SDS011;9823;50.936;4.046;2022-08-14T03:11:07;9.37;;;4.60;;
19374;SDS011;9823;50.936;4.046;2022-08-14T03:13:35;9.50;;;5.03;;
19374;SDS011;9823;50.936;4.046;2022-08-14T03:16:05;7.80;;;4.80;;
19374;SDS011;9823;50.936;4.046;2022-08-14T03:18:31;5.40;;;4.77;;
19374;SDS011;9823;50.936;4.046;2022-08-14T03:21:03;5.33;;;4.60;;
19374;SDS011;9823;50.936;4.046;2022-08-14T03:23:32;8.03;;;4.60;;
19374;SDS011;9823;50.936;4.046;2022-08-14T03:25:58;10.87;;;4.70;;
19374;SDS011;9823;50.936;4.046;2022-08-14T03:28:25;6.13;;;4.80;;
19374;SDS011;9823;50.936;4.046;2022-08-14T03:30:53;8.47;;;4.53;;
19374;SDS011;9823;50.936;4.046;2022-08-14T03:33:22;6.60;;;4.70;;
19374;SDS011;9823;50.936;4.046;2022-08-14T03:35:48;9.70;;;4.67;;
19374;SDS011;9823;50.936;4.046;2022-08-14T03:38:15;7.93;;;4.40;;
19374;SDS011;9823;50.936;4.046;2022-08-14T03:40:42;11.03;;;4.83;;
19374;SDS011;9823;50.936;4.046;2022-08-14T03:43:08;7.53;;;4.90;;
19374;SDS011;9823;50.936;4.046;2022-08-14T03:45:38;5.33;;;4.80;;
19374;SDS011;9823;50.936;4.046;2022-08-14T03:48:15;12.73;;;5.60;;
19374;SDS011;9823;50.936;4.046;2022-08-14T03:50:50;8.87;;;4.80;;
19374;SDS011;9823;50.936;4.046;2022-08-14T03:53:18;7.03;;;4.90;;
19374;SDS011;9823;50.936;4.046;2022-08-14T03:55:47;9.13;;;5.20;;
19374;SDS011;9823;50.936;4.046;2022-08-14T03:58:15;6.80;;;4.80;;
19374;SDS011;9823;50.936;4.046;2022-08-14T04:00:50;9.83;;;5.10;;
19374;SDS011;9823;50.936;4.046;2022-08-14T04:03:18;5.83;;;4.40;;
19374;SDS011;9823;50.936;4.046;2022-08-14T04:05:48;7.50;;;4.73;;
19374;SDS011;9823;50.936;4.046;2022-08-14T04:08:15;10.30;;;5.10;;
19374;SDS011;9823;50.936;4.046;2022-08-14T04:10:43;6.57;;;4.80;;
19374;SDS011;9823;50.936;4.046;2022-08-14T04:13:10;10.27;;;5.20;;
19374;SDS011;9823;50.936;4.046;2022-08-14T04:15:37;6.97;;;4.67;;
19374;SDS011;9823;50.936;4.046;2022-08-14T04:18:06;8.07;;;5.13;;
19374;SDS011;9823;50.936;4.046;2022-08-14T04:20:34;5.97;;;5.20;;
19374;SDS011;9823;50.936;4.046;2022-08-14T04:23:00;9.57;;;5.07;;
19374;SDS011;9823;50.936;4.046;2022-08-14T04:25:30;9.70;;;5.10;;
19374;SDS011;9823;50.936;4.046;2022-08-14T04:27:58;5.43;;;4.50;;
19374;SDS011;9823;50.936;4.046;2022-08-14T04:30:24;8.10;;;5.30;;
19374;SDS011;9823;50.936;4.046;2022-08-14T04:32:53;8.30;;;4.53;;
19374;SDS011;9823;50.936;4.046;2022-08-14T04:35:19;10.13;;;5.30;;
19374;SDS011;9823;50.936;4.046;2022-08-14T04:37:45;6.40;;;5.17;;
19374;SDS011;9823;50.936;4.046;2022-08-14T04:40:29;8.17;;;5.00;;
19374;SDS011;9823;50.936;4.046;2022-08-14T04:43:14;9.33;;;5.07;;
19374;SDS011;9823;50.936;4.046;2022-08-14T04:45:59;9.63;;;4.87;;
19374;SDS011;9823;50.936;4.046;2022-08-14T04:48:27;9.93;;;5.37;;
19374;SDS011;9823;50.936;4.046;2022-08-14T04:50:53;8.70;;;4.83;;
19374;SDS011;9823;50.936;4.046;2022-08-14T04:53:22;8.27;;;5.13;;
19374;SDS011;9823;50.936;4.046;2022-08-14T04:55:49;12.03;;;4.90;;
19374;SDS011;9823;50.936;4.046;2022-08-14T04:58:27;9.43;;;5.20;;
19374;SDS011;9823;50.936;4.046;2022-08-14T05:00:54;12.40;;;5.23;;
19374;SDS011;9823;50.936;4.046;2022-08-14T05:03:21;10.93;;;5.73;;
19374;SDS011;9823;50.936;4.046;2022-08-14T05:05:50;16.53;;;5.80;;
19374;SDS011;9823;50.936;4.046;2022-08-14T05:08:16;15.33;;;6.17;;
19374;SDS011;9823;50.936;4.046;2022-08-14T05:10:44;14.50;;;5.23;;
19374;SDS011;9823;50.936;4.046;2022-08-14T05:13:10;15.07;;;5.43;;
19374;SDS011;9823;50.936;4.046;2022-08-14T05:15:39;13.93;;;5.30;;
19374;SDS011;9823;50.936;4.046;2022-08-14T05:18:09;11.43;;;5.13;;
19374;SDS011;9823;50.936;4.046;2022-08-14T05:20:36;11.73;;;5.20;;
19374;SDS011;9823;50.936;4.046;2022-08-14T05:23:05;8.53;;;5.43;;
19374;SDS011;9823;50.936;4.046;2022-08-14T05:25:32;10.43;;;5.30;;
19374;SDS011;9823;50.936;4.046;2022-08-14T05:28:05;9.90;;;5.37;;
19374;SDS011;9823;50.936;4.046;2022-08-14T05:30:31;7.70;;;5.47;;
19374;SDS011;9823;50.936;4.046;2022-08-14T05:32:57;9.47;;;5.57;;
19374;SDS011;9823;50.936;4.046;2022-08-14T05:35:26;10.03;;;5.20;;
19374;SDS011;9823;50.936;4.046;2022-08-14T05:37:52;14.57;;;5.80;;
19374;SDS011;9823;50.936;4.046;2022-08-14T05:40:18;10.43;;;5.57;;
19374;SDS011;9823;50.936;4.046;2022-08-14T05:42:46;10.87;;;5.23;;
19374;SDS011;9823;50.936;4.046;2022-08-14T05:45:12;12.97;;;5.30;;
19374;SDS011;9823;50.936;4.046;2022-08-14T05:47:41;15.00;;;5.80;;
19374;SDS011;9823;50.936;4.046;2022-08-14T05:50:10;13.17;;;5.50;;
19374;SDS011;9823;50.936;4.046;2022-08-14T05:52:39;15.90;;;5.20;;
19374;SDS011;9823;50.936;4.046;2022-08-14T05:55:06;12.53;;;5.53;;
19374;SDS011;9823;50.936;4.046;2022-08-14T05:57:32;11.20;;;5.63;;
19374;SDS011;9823;50.936;4.046;2022-08-14T06:00:01;13.73;;;5.50;;
19374;SDS011;9823;50.936;4.046;2022-08-14T06:02:29;11.43;;;4.73;;
19374;SDS011;9823;50.936;4.046;2022-08-14T06:04:56;9.63;;;4.70;;
19374;SDS011;9823;50.936;4.046;2022-08-14T06:07:22;11.03;;;4.83;;
19374;SDS011;9823;50.936;4.046;2022-08-14T06:09:48;9.07;;;4.93;;
19374;SDS011;9823;50.936;4.046;2022-08-14T06:12:17;9.17;;;4.63;;
19374;SDS011;9823;50.936;4.046;2022-08-14T06:14:49;7.20;;;5.10;;
19374;SDS011;9823;50.936;4.046;2022-08-14T06:17:15;12.23;;;5.27;;
19374;SDS011;9823;50.936;4.046;2022-08-14T06:19:41;6.70;;;4.40;;
19374;SDS011;9823;50.936;4.046;2022-08-14T06:22:09;8.43;;;4.50;;
19374;SDS011;9823;50.936;4.046;2022-08-14T06:24:38;5.43;;;4.37;;
19374;SDS011;9823;50.936;4.046;2022-08-14T06:27:04;8.97;;;4.20;;
19374;SDS011;9823;50.936;4.046;2022-08-14T06:29:31;8.13;;;4.40;;
19374;SDS011;9823;50.936;4.046;2022-08-14T06:32:00;6.03;;;3.90;;
19374;SDS011;9823;50.936;4.046;2022-08-14T06:34:29;6.33;;;3.90;;
19374;SDS011;9823;50.936;4.046;2022-08-14T06:36:55;7.93;;;4.33;;
19374;SDS011;9823;50.936;4.046;2022-08-14T06:39:24;8.30;;;4.17;;
19374;SDS011;9823;50.936;4.046;2022-08-14T06:41:52;5.77;;;3.87;;
19374;SDS011;9823;50.936;4.046;2022-08-14T06:44:20;5.00;;;3.67;;
19374;SDS011;9823;50.936;4.046;2022-08-14T06:46:46;7.17;;;3.93;;
19374;SDS011;9823;50.936;4.046;2022-08-14T06:49:12;9.43;;;3.77;;
19374;SDS011;9823;50.936;4.046;2022-08-14T06:51:41;8.20;;;3.60;;
19374;SDS011;9823;50.936;4.046;2022-08-14T06:54:11;10.67;;;3.60;;
19374;SDS011;9823;50.936;4.046;2022-08-14T06:56:42;5.20;;;3.33;;
19374;SDS011;9823;50.936;4.046;2022-08-14T06:59:08;6.93;;;3.20;;
19374;SDS011;9823;50.936;4.046;2022-08-14T07:01:36;9.30;;;3.23;;
19374;SDS011;9823;50.936;4.046;2022-08-14T07:04:21;5.93;;;3.50;;
19374;SDS011;9823;50.936;4.046;2022-08-14T07:07:07;7.60;;;3.53;;
19374;SDS011;9823;50.936;4.046;2022-08-14T07:09:33;5.50;;;3.30;;
19374;SDS011;9823;50.936;4.046;2022-08-14T07:12:00;7.60;;;3.40;;
19374;SDS011;9823;50.936;4.046;2022-08-14T07:14:26;9.63;;;3.23;;
19374;SDS011;9823;50.936;4.046;2022-08-14T07:16:54;7.47;;;3.50;;
19374;SDS011;9823;50.936;4.046;2022-08-14T07:19:20;8.70;;;3.40;;
19374;SDS011;9823;50.936;4.046;2022-08-14T07:21:48;6.83;;;3.53;;
19374;SDS011;9823;50.936;4.046;2022-08-14T07:24:14;11.33;;;4.43;;
19374;SDS011;9823;50.936;4.046;2022-08-14T07:26:42;9.03;;;3.80;;
19374;SDS011;9823;50.936;4.046;2022-08-14T07:29:08;6.33;;;3.57;;
19374;SDS011;9823;50.936;4.046;2022-08-14T07:31:34;7.20;;;3.97;;
19374;SDS011;9823;50.936;4.046;2022-08-14T07:34:02;6.03;;;3.90;;
19374;SDS011;9823;50.936;4.046;2022-08-14T07:36:31;4.70;;;4.00;;
19374;SDS011;9823;50.936;4.046;2022-08-14T07:39:00;4.63;;;3.80;;
19374;SDS011;9823;50.936;4.046;2022-08-14T07:41:28;8.30;;;4.30;;
19374;SDS011;9823;50.936;4.046;2022-08-14T07:43:54;7.70;;;4.10;;
19374;SDS011;9823;50.936;4.046;2022-08-14T07:46:20;13.80;;;4.70;;
19374;SDS011;9823;50.936;4.046;2022-08-14T07:48:46;7.87;;;4.50;;
19374;SDS011;9823;50.936;4.046;2022-08-14T07:51:12;10.50;;;4.00;;
19374;SDS011;9823;50.936;4.046;2022-08-14T07:53:39;6.90;;;3.60;;
19374;SDS011;9823;50.936;4.046;2022-08-14T07:56:09;9.03;;;4.40;;
19374;SDS011;9823;50.936;4.046;2022-08-14T07:58:35;9.02;;;3.97;;
19374;SDS011;9823;50.936;4.046;2022-08-14T08:01:02;13.77;;;5.55;;
19374;SDS011;9823;50.936;4.046;2022-08-14T08:03:28;7.15;;;4.15;;
19374;SDS011;9823;50.936;4.046;2022-08-14T08:05:58;5.28;;;3.90;;
19374;SDS011;9823;50.936;4.046;2022-08-14T08:08:27;7.95;;;3.83;;
19374;SDS011;9823;50.936;4.046;2022-08-14T08:10:54;5.80;;;3.63;;
19374;SDS011;9823;50.936;4.046;2022-08-14T08:13:21;4.35;;;3.35;;
19374;SDS011;9823;50.936;4.046;2022-08-14T08:15:49;6.75;;;4.07;;
19374;SDS011;9823;50.936;4.046;2022-08-14T08:18:17;4.10;;;3.58;;
19374;SDS011;9823;50.936;4.046;2022-08-14T08:20:47;5.32;;;3.58;;
19374;SDS011;9823;50.936;4.046;2022-08-14T08:23:16;3.58;;;3.28;;
19374;SDS011;9823;50.936;4.046;2022-08-14T08:25:45;3.70;;;3.20;;
19374;SDS011;9823;50.936;4.046;2022-08-14T08:28:17;5.32;;;3.40;;
19374;SDS011;9823;50.936;4.046;2022-08-14T08:33:14;9.15;;;3.45;;
19374;SDS011;9823;50.936;4.046;2022-08-14T08:35:41;6.22;;;3.70;;
19374;SDS011;9823;50.936;4.046;2022-08-14T08:38:11;6.53;;;3.20;;
19374;SDS011;9823;50.936;4.046;2022-08-14T08:40:42;5.90;;;3.20;;
19374;SDS011;9823;50.936;4.046;2022-08-14T08:43:15;4.80;;;3.37;;
19374;SDS011;9823;50.936;4.046;2022-08-14T08:45:42;5.77;;;3.50;;
19374;SDS011;9823;50.936;4.046;2022-08-14T08:48:10;7.50;;;4.07;;
19374;SDS011;9823;50.936;4.046;2022-08-14T08:50:37;5.33;;;3.40;;
19374;SDS011;9823;50.936;4.046;2022-08-14T08:53:07;5.83;;;3.37;;
19374;SDS011;9823;50.936;4.046;2022-08-14T08:55:34;6.70;;;3.45;;
19374;SDS011;9823;50.936;4.046;2022-08-14T08:58:02;6.43;;;3.50;;
19374;SDS011;9823;50.936;4.046;2022-08-14T09:00:28;8.07;;;3.50;;
19374;SDS011;9823;50.936;4.046;2022-08-14T09:05:24;3.40;;;3.03;;
19374;SDS011;9823;50.936;4.046;2022-08-14T09:07:50;5.10;;;3.17;;
19374;SDS011;9823;50.936;4.046;2022-08-14T09:10:16;4.18;;;2.78;;
19374;SDS011;9823;50.936;4.046;2022-08-14T09:12:46;3.85;;;3.35;;
19374;SDS011;9823;50.936;4.046;2022-08-14T09:15:16;6.55;;;3.20;;
19374;SDS011;9823;50.936;4.046;2022-08-14T09:17:42;4.95;;;3.42;;
19374;SDS011;9823;50.936;4.046;2022-08-14T09:20:13;4.18;;;2.47;;
19374;SDS011;9823;50.936;4.046;2022-08-14T09:22:39;6.25;;;2.80;;
19374;SDS011;9823;50.936;4.046;2022-08-14T09:25:06;7.30;;;2.50;;
19374;SDS011;9823;50.936;4.046;2022-08-14T09:27:32;3.90;;;2.22;;
19374;SDS011;9823;50.936;4.046;2022-08-14T09:29:58;3.90;;;2.53;;
19374;SDS011;9823;50.936;4.046;2022-08-14T09:32:26;5.85;;;2.63;;
19374;SDS011;9823;50.936;4.046;2022-08-14T09:40:02;4.93;;;2.30;;
19374;SDS011;9823;50.936;4.046;2022-08-14T09:45:37;5.27;;;2.50;;
19374;SDS011;9823;50.936;4.046;2022-08-14T09:48:13;6.28;;;2.47;;
19374;SDS011;9823;50.936;4.046;2022-08-14T09:50:45;5.65;;;2.40;;
19374;SDS011;9823;50.936;4.046;2022-08-14T09:53:11;4.80;;;2.00;;
19374;SDS011;9823;50.936;4.046;2022-08-14T09:55:56;5.40;;;2.13;;
19374;SDS011;9823;50.936;4.046;2022-08-14T09:58:22;6.30;;;1.90;;
19374;SDS011;9823;50.936;4.046;2022-08-14T10:00:50;4.10;;;1.93;;
19374;SDS011;9823;50.936;4.046;2022-08-14T10:03:33;5.63;;;2.20;;
19374;SDS011;9823;50.936;4.046;2022-08-14T10:06:07;4.22;;;1.70;;
19374;SDS011;9823;50.936;4.046;2022-08-14T10:08:48;3.27;;;2.20;;
19374;SDS011;9823;50.936;4.046;2022-08-14T10:13:41;2.78;;;1.80;;
19374;SDS011;9823;50.936;4.046;2022-08-14T10:16:08;2.07;;;1.83;;
19374;SDS011;9823;50.936;4.046;2022-08-14T10:18:35;6.87;;;2.07;;
19374;SDS011;9823;50.936;4.046;2022-08-14T10:21:03;2.37;;;1.60;;
19374;SDS011;9823;50.936;4.046;2022-08-14T10:23:40;4.13;;;1.90;;
19374;SDS011;9823;50.936;4.046;2022-08-14T10:26:07;2.80;;;1.83;;
19374;SDS011;9823;50.936;4.046;2022-08-14T10:28:45;5.30;;;1.80;;
19374;SDS011;9823;50.936;4.046;2022-08-14T10:34:05;3.37;;;1.67;;
19374;SDS011;9823;50.936;4.046;2022-08-14T10:36:43;3.87;;;1.97;;
19374;SDS011;9823;50.936;4.046;2022-08-14T10:39:20;3.17;;;1.80;;
19374;SDS011;9823;50.936;4.046;2022-08-14T10:41:47;2.80;;;1.80;;
19374;SDS011;9823;50.936;4.046;2022-08-14T10:44:17;4.47;;;2.00;;
19374;SDS011;9823;50.936;4.046;2022-08-14T10:46:50;4.60;;;2.13;;
19374;SDS011;9823;50.936;4.046;2022-08-14T10:49:23;3.23;;;1.77;;
19374;SDS011;9823;50.936;4.046;2022-08-14T10:54:28;5.63;;;2.10;;
19374;SDS011;9823;50.936;4.046;2022-08-14T10:56:55;6.00;;;2.27;;
19374;SDS011;9823;50.936;4.046;2022-08-14T10:59:26;2.93;;;1.90;;
19374;SDS011;9823;50.936;4.046;2022-08-14T11:01:54;4.70;;;2.23;;
19374;SDS011;9823;50.936;4.046;2022-08-14T11:04:26;6.23;;;2.53;;
19374;SDS011;9823;50.936;4.046;2022-08-14T11:06:59;3.77;;;2.10;;
19374;SDS011;9823;50.936;4.046;2022-08-14T11:09:26;4.70;;;2.00;;
19374;SDS011;9823;50.936;4.046;2022-08-14T11:11:56;3.47;;;1.80;;
19374;SDS011;9823;50.936;4.046;2022-08-14T11:14:25;1.77;;;1.57;;
19374;SDS011;9823;50.936;4.046;2022-08-14T11:16:51;4.80;;;1.87;;
19374;SDS011;9823;50.936;4.046;2022-08-14T11:19:19;2.40;;;2.10;;
19374;SDS011;9823;50.936;4.046;2022-08-14T11:21:46;2.13;;;1.80;;
19374;SDS011;9823;50.936;4.046;2022-08-14T11:24:16;3.03;;;1.70;;
19374;SDS011;9823;50.936;4.046;2022-08-14T11:26:44;2.40;;;1.90;;
19374;SDS011;9823;50.936;4.046;2022-08-14T11:29:10;4.60;;;2.17;;
19374;SDS011;9823;50.936;4.046;2022-08-14T11:31:36;3.73;;;2.30;;
19374;SDS011;9823;50.936;4.046;2022-08-14T11:34:05;2.40;;;2.20;;
19374;SDS011;9823;50.936;4.046;2022-08-14T11:36:31;5.20;;;2.20;;
19374;SDS011;9823;50.936;4.046;2022-08-14T11:38:59;2.07;;;1.87;;
19374;SDS011;9823;50.936;4.046;2022-08-14T11:41:30;3.57;;;2.00;;
19374;SDS011;9823;50.936;4.046;2022-08-14T11:43:58;4.67;;;2.30;;
19374;SDS011;9823;50.936;4.046;2022-08-14T11:46:25;5.20;;;2.30;;
19374;SDS011;9823;50.936;4.046;2022-08-14T11:48:54;3.50;;;2.40;;
19374;SDS011;9823;50.936;4.046;2022-08-14T11:51:24;3.07;;;2.03;;
19374;SDS011;9823;50.936;4.046;2022-08-14T11:56:19;3.67;;;2.10;;
19374;SDS011;9823;50.936;4.046;2022-08-14T11:58:53;5.13;;;2.40;;
19374;SDS011;9823;50.936;4.046;2022-08-14T12:01:25;7.40;;;2.20;;
19374;SDS011;9823;50.936;4.046;2022-08-14T12:03:52;4.57;;;1.87;;
19374;SDS011;9823;50.936;4.046;2022-08-14T12:06:20;8.00;;;2.43;;
19374;SDS011;9823;50.936;4.046;2022-08-14T12:08:49;3.30;;;2.20;;
19374;SDS011;9823;50.936;4.046;2022-08-14T12:11:18;8.67;;;2.57;;
19374;SDS011;9823;50.936;4.046;2022-08-14T12:13:48;3.20;;;2.30;;
19374;SDS011;9823;50.936;4.046;2022-08-14T12:16:15;6.07;;;2.33;;
19374;SDS011;9823;50.936;4.046;2022-08-14T12:18:45;2.83;;;2.30;;
19374;SDS011;9823;50.936;4.046;2022-08-14T12:21:17;2.37;;;2.10;;
19374;SDS011;9823;50.936;4.046;2022-08-14T12:23:44;4.80;;;2.10;;
19374;SDS011;9823;50.936;4.046;2022-08-14T12:26:16;5.47;;;1.90;;
19374;SDS011;9823;50.936;4.046;2022-08-14T12:28:49;3.70;;;2.00;;
19374;SDS011;9823;50.936;4.046;2022-08-14T12:31:19;4.77;;;2.23;;
19374;SDS011;9823;50.936;4.046;2022-08-14T12:33:57;4.73;;;1.90;;
19374;SDS011;9823;50.936;4.046;2022-08-14T12:36:24;2.30;;;1.90;;
19374;SDS011;9823;50.936;4.046;2022-08-14T12:38:59;3.67;;;1.83;;
19374;SDS011;9823;50.936;4.046;2022-08-14T12:41:27;3.00;;;2.00;;
19374;SDS011;9823;50.936;4.046;2022-08-14T12:43:59;3.63;;;2.27;;
19374;SDS011;9823;50.936;4.046;2022-08-14T12:46:29;2.33;;;1.97;;
19374;SDS011;9823;50.936;4.046;2022-08-14T12:48:56;2.10;;;1.80;;
19374;SDS011;9823;50.936;4.046;2022-08-14T12:51:24;2.50;;;1.87;;
19374;SDS011;9823;50.936;4.046;2022-08-14T12:53:51;4.00;;;1.80;;
19374;SDS011;9823;50.936;4.046;2022-08-14T12:56:18;3.67;;;1.50;;
19374;SDS011;9823;50.936;4.046;2022-08-14T12:58:49;4.27;;;1.93;;
19374;SDS011;9823;50.936;4.046;2022-08-14T13:01:19;7.40;;;1.87;;
19374;SDS011;9823;50.936;4.046;2022-08-14T13:03:45;2.63;;;1.67;;
19374;SDS011;9823;50.936;4.046;2022-08-14T13:06:12;1.77;;;1.60;;
19374;SDS011;9823;50.936;4.046;2022-08-14T13:08:38;2.77;;;1.73;;
19374;SDS011;9823;50.936;4.046;2022-08-14T13:11:10;3.63;;;1.70;;
19374;SDS011;9823;50.936;4.046;2022-08-14T13:13:40;3.73;;;1.60;;
19374;SDS011;9823;50.936;4.046;2022-08-14T13:16:08;2.07;;;1.70;;
19374;SDS011;9823;50.936;4.046;2022-08-14T13:18:37;2.03;;;1.80;;
19374;SDS011;9823;50.936;4.046;2022-08-14T13:21:08;5.20;;;1.77;;
19374;SDS011;9823;50.936;4.046;2022-08-14T13:23:35;2.90;;;1.60;;
19374;SDS011;9823;50.936;4.046;2022-08-14T13:26:05;1.87;;;1.60;;
19374;SDS011;9823;50.936;4.046;2022-08-14T13:28:31;3.10;;;1.77;;
19374;SDS011;9823;50.936;4.046;2022-08-14T13:31:00;2.53;;;1.80;;
19374;SDS011;9823;50.936;4.046;2022-08-14T13:33:31;3.53;;;1.73;;
19374;SDS011;9823;50.936;4.046;2022-08-14T13:36:00;3.03;;;1.83;;
19374;SDS011;9823;50.936;4.046;2022-08-14T13:38:29;4.30;;;1.60;;
19374;SDS011;9823;50.936;4.046;2022-08-14T13:40:55;4.07;;;1.73;;
19374;SDS011;9823;50.936;4.046;2022-08-14T13:43:22;3.33;;;1.90;;
19374;SDS011;9823;50.936;4.046;2022-08-14T13:45:51;3.83;;;1.90;;
19374;SDS011;9823;50.936;4.046;2022-08-14T13:48:20;3.97;;;1.73;;
19374;SDS011;9823;50.936;4.046;2022-08-14T13:50:48;3.20;;;1.83;;
19374;SDS011;9823;50.936;4.046;2022-08-14T13:53:17;3.87;;;1.93;;
19374;SDS011;9823;50.936;4.046;2022-08-14T13:55:45;8.47;;;2.20;;
19374;SDS011;9823;50.936;4.046;2022-08-14T13:58:14;2.90;;;1.93;;
19374;SDS011;9823;50.936;4.046;2022-08-14T14:00:42;2.63;;;1.87;;
19374;SDS011;9823;50.936;4.046;2022-08-14T14:03:09;6.80;;;2.10;;
19374;SDS011;9823;50.936;4.046;2022-08-14T14:05:36;3.70;;;2.10;;
19374;SDS011;9823;50.936;4.046;2022-08-14T14:08:04;2.40;;;2.03;;
19374;SDS011;9823;50.936;4.046;2022-08-14T14:10:31;3.67;;;1.70;;
19374;SDS011;9823;50.936;4.046;2022-08-14T14:13:00;2.77;;;1.83;;
19374;SDS011;9823;50.936;4.046;2022-08-14T14:15:26;6.43;;;1.90;;
19374;SDS011;9823;50.936;4.046;2022-08-14T14:17:55;2.10;;;1.50;;
19374;SDS011;9823;50.936;4.046;2022-08-14T14:20:23;2.97;;;1.70;;
19374;SDS011;9823;50.936;4.046;2022-08-14T14:22:51;3.10;;;1.60;;
19374;SDS011;9823;50.936;4.046;2022-08-14T14:25:18;6.60;;;1.80;;
19374;SDS011;9823;50.936;4.046;2022-08-14T14:27:45;3.47;;;1.67;;
19374;SDS011;9823;50.936;4.046;2022-08-14T14:30:15;2.27;;;1.80;;
19374;SDS011;9823;50.936;4.046;2022-08-14T14:32:44;5.50;;;1.73;;
19374;SDS011;9823;50.936;4.046;2022-08-14T14:35:16;2.03;;;1.50;;
19374;SDS011;9823;50.936;4.046;2022-08-14T14:37:48;3.77;;;1.60;;
19374;SDS011;9823;50.936;4.046;2022-08-14T14:40:14;2.27;;;1.90;;
19374;SDS011;9823;50.936;4.046;2022-08-14T14:42:45;4.30;;;2.00;;
19374;SDS011;9823;50.936;4.046;2022-08-14T14:45:16;2.07;;;1.70;;
19374;SDS011;9823;50.936;4.046;2022-08-14T14:47:48;4.63;;;1.97;;
19374;SDS011;9823;50.936;4.046;2022-08-14T14:50:15;4.73;;;1.97;;
19374;SDS011;9823;50.936;4.046;2022-08-14T14:52:44;4.17;;;1.90;;
19374;SDS011;9823;50.936;4.046;2022-08-14T14:55:13;3.63;;;1.70;;
19374;SDS011;9823;50.936;4.046;2022-08-14T14:57:40;3.97;;;1.80;;
19374;SDS011;9823;50.936;4.046;2022-08-14T15:00:10;3.00;;;1.60;;
19374;SDS011;9823;50.936;4.046;2022-08-14T15:02:45;8.07;;;1.70;;
19374;SDS011;9823;50.936;4.046;2022-08-14T15:05:12;2.37;;;1.73;;
19374;SDS011;9823;50.936;4.046;2022-08-14T15:07:40;3.57;;;1.70;;
19374;SDS011;9823;50.936;4.046;2022-08-14T15:10:09;2.37;;;1.70;;
19374;SDS011;9823;50.936;4.046;2022-08-14T15:12:36;2.93;;;1.83;;
19374;SDS011;9823;50.936;4.046;2022-08-14T15:15:02;5.60;;;2.30;;
19374;SDS011;9823;50.936;4.046;2022-08-14T15:17:29;5.87;;;1.90;;
19374;SDS011;9823;50.936;4.046;2022-08-14T15:20:04;2.57;;;1.60;;
19374;SDS011;9823;50.936;4.046;2022-08-14T15:22:30;2.20;;;1.67;;
19374;SDS011;9823;50.936;4.046;2022-08-14T15:24:56;5.73;;;2.20;;
19374;SDS011;9823;50.936;4.046;2022-08-14T15:27:25;3.60;;;1.80;;
19374;SDS011;9823;50.936;4.046;2022-08-14T15:29:59;2.37;;;2.00;;
19374;SDS011;9823;50.936;4.046;2022-08-14T15:32:25;2.03;;;1.80;;
19374;SDS011;9823;50.936;4.046;2022-08-14T15:34:51;2.90;;;2.23;;
19374;SDS011;9823;50.936;4.046;2022-08-14T15:37:20;4.87;;;1.90;;